Temp: 17.3°C   Baro: 1010.0mb
  Wind: 2.9mph   Dir: WNW (286°)
  Rain: 0.8mm (0.0mm/hr)
  Solar: 186W/m2  Hum: 90%
 
Bath Spa Weather Station Historical Data
Daily Summary for June 14, 2019 Units:  Both    English   Metric
Daily Weekly Monthly Yearly Custom
  High: Low: Average:
Temperature: 75.9 °F /  24.4 °C 56.8 °F /  13.8 °C 65.8 °F /  18.8 °C
Dew Point: 59.9 °F /  15.5 °C 50.6 °F /  10.3 °C 55.4 °F /  13 °C
Humidity: 82% 55% 70%
Wind Speed: 7.9mph /  12.7km/h - 2.6mph /  4.2km/h
Wind Gust: 15mph /  24.1km/h - -
Wind- - East
Pressure: 30.22 in /  1023.2 hPa 30.18 in /  1021.9 hPa -
Precipitation: 0.00 in /  0 mm    
Historical Graphs
 
 
Tabular Data for June 14, 2019
Time Temperature Dew Point Pressure Wind Wind Speed Wind Gust Humidity Rainfall Rate (Hourly) solar
00:04 61.6 °F /  16.4 °C 54.9 °F /  12.7 °C 30.20in /  1022.6hPa NNE 6.1mph /  9.8km/h 14mph /  22.5km/h 79% 0.00in /  0mm 0 W/m2
00:09 61.4 °F /  16.3 °C 54.9 °F /  12.7 °C 30.21in /  1022.9hPa NNE 6mph /  9.7km/h 11mph /  17.7km/h 79% 0.00in /  0mm 0 W/m2
00:14 61.3 °F /  16.3 °C 54.9 °F /  12.7 °C 30.21in /  1022.9hPa NE 3.2mph /  5.1km/h 10mph /  16.1km/h 79.9% 0.00in /  0mm 0 W/m2
00:19 61.2 °F /  16.2 °C 54.9 °F /  12.7 °C 30.21in /  1022.9hPa NNE 3.4mph /  5.5km/h 10mph /  16.1km/h 80% 0.00in /  0mm 0 W/m2
00:24 60.9 °F /  16.1 °C 54.7 °F /  12.6 °C 30.21in /  1022.9hPa NE 4.8mph /  7.7km/h 11mph /  17.7km/h 80% 0.00in /  0mm 0 W/m2
00:29 60.7 °F /  15.9 °C 54.6 °F /  12.6 °C 30.21in /  1022.9hPa NNE 5.7mph /  9.2km/h 15mph /  24.1km/h 80% 0.00in /  0mm 0 W/m2
00:34 60.6 °F /  15.9 °C 54.7 °F /  12.6 °C 30.21in /  1022.9hPa NNE 3.9mph /  6.3km/h 13mph /  20.9km/h 80.9% 0.00in /  0mm 0 W/m2
00:39 60.4 °F /  15.8 °C 54.5 °F /  12.5 °C 30.21in /  1022.9hPa NE 5.7mph /  9.2km/h 13mph /  20.9km/h 81% 0.00in /  0mm 0 W/m2
00:44 60.4 °F /  15.8 °C 54.5 °F /  12.5 °C 30.21in /  1022.9hPa NNE 4.9mph /  7.9km/h 13mph /  20.9km/h 81% 0.00in /  0mm 0 W/m2
00:49 60.3 °F /  15.7 °C 54.3 °F /  12.4 °C 30.21in /  1022.9hPa NE 6.1mph /  9.8km/h 12mph /  19.3km/h 81% 0.00in /  0mm 0 W/m2
00:54 60.2 °F /  15.7 °C 54.3 °F /  12.4 °C 30.21in /  1022.9hPa NNE 3.6mph /  5.8km/h 12mph /  19.3km/h 81% 0.00in /  0mm 0 W/m2
00:59 60 °F /  15.6 °C 54.2 °F /  12.3 °C 30.22in /  1023.2hPa NE 4.5mph /  7.2km/h 9mph /  14.5km/h 81% 0.00in /  0mm 0 W/m2
01:04 59.9 °F /  15.5 °C 54.1 °F /  12.3 °C 30.22in /  1023.2hPa NNE 3.1mph /  5km/h 10mph /  16.1km/h 81% 0.00in /  0mm 0 W/m2
01:09 59.8 °F /  15.4 °C 54.1 °F /  12.3 °C 30.22in /  1023.2hPa NE 3mph /  4.8km/h 8mph /  12.9km/h 81% 0.00in /  0mm 0 W/m2
01:14 59.7 °F /  15.4 °C 54 °F /  12.2 °C 30.22in /  1023.2hPa NNE 0.8mph /  1.3km/h 6mph /  9.7km/h 81% 0.00in /  0mm 0 W/m2
01:19 59.7 °F /  15.4 °C 54 °F /  12.2 °C 30.22in /  1023.2hPa NE 0.1mph /  0.2km/h 3mph /  4.8km/h 81% 0.00in /  0mm 0 W/m2
01:24 59.7 °F /  15.4 °C 54 °F /  12.2 °C 30.22in /  1023.2hPa NE 0.2mph /  0.3km/h 2mph /  3.2km/h 81% 0.00in /  0mm 0 W/m2
01:29 59.5 °F /  15.3 °C 53.8 °F /  12.1 °C 30.22in /  1023.2hPa Calm   1mph /  1.6km/h 81% 0.00in /  0mm 0 W/m2
01:34 59.5 °F /  15.3 °C 53.8 °F /  12.1 °C 30.22in /  1023.2hPa NE 0.8mph /  1.3km/h 4mph /  6.4km/h 81% 0.00in /  0mm 0 W/m2
01:39 59.5 °F /  15.3 °C 53.8 °F /  12.1 °C 30.22in /  1023.2hPa NE 0.5mph /  0.8km/h 4mph /  6.4km/h 81% 0.00in /  0mm 0 W/m2
01:44 59.4 °F /  15.2 °C 53.6 °F /  12 °C 30.22in /  1023.2hPa NE 3.9mph /  6.3km/h 7mph /  11.3km/h 81% 0.00in /  0mm 0 W/m2
01:49 59.2 °F /  15.1 °C 53.4 °F /  11.9 °C 30.22in /  1023.2hPa NE 3.6mph /  5.8km/h 10mph /  16.1km/h 81% 0.00in /  0mm 0 W/m2
01:54 59 °F /  15 °C 52.9 °F /  11.6 °C 30.22in /  1023.2hPa NE 1.2mph /  1.9km/h 10mph /  16.1km/h 80% 0.00in /  0mm 0 W/m2
01:59 59 °F /  15 °C 52.9 °F /  11.6 °C 30.22in /  1023.2hPa NE 2.8mph /  4.5km/h 7mph /  11.3km/h 80% 0.00in /  0mm 0 W/m2
02:04 59 °F /  15 °C 52.9 °F /  11.6 °C 30.22in /  1023.2hPa NE 1.9mph /  3.1km/h 7mph /  11.3km/h 80% 0.00in /  0mm 0 W/m2
02:09 58.9 °F /  14.9 °C 52.4 °F /  11.3 °C 30.22in /  1023.2hPa NE 4.1mph /  6.6km/h 10mph /  16.1km/h 79% 0.00in /  0mm 0 W/m2
02:14 58.8 °F /  14.9 °C 52.3 °F /  11.3 °C 30.22in /  1023.2hPa ENE 3.2mph /  5.1km/h 9mph /  14.5km/h 78.9% 0.00in /  0mm 0 W/m2
02:19 58.8 °F /  14.9 °C 52 °F /  11.1 °C 30.22in /  1023.2hPa NNE 2.4mph /  3.9km/h 10mph /  16.1km/h 78% 0.00in /  0mm 0 W/m2
02:24 58.8 °F /  14.9 °C 52 °F /  11.1 °C 30.22in /  1023.2hPa NNE 3mph /  4.8km/h 12mph /  19.3km/h 78% 0.00in /  0mm 0 W/m2
02:29 58.8 °F /  14.9 °C 51.6 °F /  10.9 °C 30.22in /  1023.2hPa ENE 2mph /  3.2km/h 5mph /  8km/h 77% 0.00in /  0mm 0 W/m2
02:34 58.8 °F /  14.9 °C 51.6 °F /  10.9 °C 30.22in /  1023.2hPa NE 4.1mph /  6.6km/h 10mph /  16.1km/h 77% 0.00in /  0mm 0 W/m2
02:39 58.8 °F /  14.9 °C 51.5 °F /  10.8 °C 30.22in /  1023.2hPa NE 2mph /  3.2km/h 10mph /  16.1km/h 76.5% 0.00in /  0mm 0 W/m2
02:44 58.8 °F /  14.9 °C 51.3 °F /  10.7 °C 30.22in /  1023.2hPa East 2.2mph /  3.5km/h 6mph /  9.7km/h 76% 0.00in /  0mm 0 W/m2
02:49 58.8 °F /  14.9 °C 51.3 °F /  10.7 °C 30.22in /  1023.2hPa ENE 1.5mph /  2.4km/h 6mph /  9.7km/h 76% 0.00in /  0mm 0 W/m2
02:54 58.7 °F /  14.8 °C 51.2 °F /  10.7 °C 30.21in /  1022.9hPa ENE 1.9mph /  3.1km/h 7mph /  11.3km/h 76% 0.00in /  0mm 0 W/m2
02:59 58.7 °F /  14.8 °C 51.2 °F /  10.7 °C 30.21in /  1022.9hPa NE 1.1mph /  1.8km/h 5mph /  8km/h 76% 0.00in /  0mm 0 W/m2
03:04 58.6 °F /  14.8 °C 51.1 °F /  10.6 °C 30.21in /  1022.9hPa NNE 1.4mph /  2.3km/h 6mph /  9.7km/h 76% 0.00in /  0mm 0 W/m2
03:09 58.6 °F /  14.8 °C 51.1 °F /  10.6 °C 30.21in /  1022.9hPa NE 1.5mph /  2.4km/h 6mph /  9.7km/h 76% 0.00in /  0mm 0 W/m2
03:14 58.6 °F /  14.8 °C 51.1 °F /  10.6 °C 30.21in /  1022.9hPa NE 2mph /  3.2km/h 6mph /  9.7km/h 76% 0.00in /  0mm 0 W/m2
03:19 58.6 °F /  14.8 °C 51 °F /  10.6 °C 30.21in /  1022.9hPa NE 0.8mph /  1.3km/h 4mph /  6.4km/h 76% 0.00in /  0mm 0 W/m2
03:24 58.5 °F /  14.7 °C 50.9 °F /  10.5 °C 30.21in /  1022.9hPa NE 0.7mph /  1.1km/h 4mph /  6.4km/h 76% 0.00in /  0mm 0 W/m2
03:29 58.5 °F /  14.7 °C 50.9 °F /  10.5 °C 30.21in /  1022.9hPa NE 0.5mph /  0.8km/h 3mph /  4.8km/h 76% 0.00in /  0mm 0 W/m2
03:34 58.5 °F /  14.7 °C 50.9 °F /  10.5 °C 30.20in /  1022.6hPa ENE 2.1mph /  3.4km/h 9mph /  14.5km/h 76% 0.00in /  0mm 0 W/m2
03:39 58.5 °F /  14.7 °C 50.8 °F /  10.4 °C 30.20in /  1022.6hPa ENE 1.4mph /  2.3km/h 8mph /  12.9km/h 75.6% 0.00in /  0mm 0 W/m2
03:44 58.6 °F /  14.8 °C 50.6 °F /  10.3 °C 30.20in /  1022.6hPa ENE 2.5mph /  4km/h 8mph /  12.9km/h 75% 0.00in /  0mm 0 W/m2
03:49 58.6 °F /  14.8 °C 50.7 °F /  10.4 °C 30.20in /  1022.6hPa NE 0.9mph /  1.4km/h 8mph /  12.9km/h 75% 0.00in /  0mm 0 W/m2
03:54 58.6 °F /  14.8 °C 50.7 °F /  10.4 °C 30.20in /  1022.6hPa NE 1.5mph /  2.4km/h 5mph /  8km/h 75% 0.00in /  0mm 0 W/m2
03:59 58.6 °F /  14.8 °C 50.7 °F /  10.4 °C 30.20in /  1022.6hPa NE 0.3mph /  0.5km/h 5mph /  8km/h 75% 0.00in /  0mm 0 W/m2
04:04 58.6 °F /  14.8 °C 50.7 °F /  10.4 °C 30.20in /  1022.6hPa NE 0.1mph /  0.2km/h 3mph /  4.8km/h 75% 0.00in /  0mm 0 W/m2
04:09 58.6 °F /  14.8 °C 50.7 °F /  10.4 °C 30.20in /  1022.6hPa North 1.3mph /  2.1km/h 5mph /  8km/h 75% 0.00in /  0mm 0 W/m2
04:14 58.6 °F /  14.8 °C 50.8 °F /  10.4 °C 30.20in /  1022.6hPa WNW 1.6mph /  2.6km/h 5mph /  8km/h 75.3% 0.00in /  0mm 0 W/m2
04:19 58.3 °F /  14.6 °C 50.9 °F /  10.5 °C 30.20in /  1022.6hPa WNW 2.9mph /  4.7km/h 5mph /  8km/h 76.5% 0.00in /  0mm 0 W/m2
04:24 58 °F /  14.4 °C 51.1 °F /  10.6 °C 30.20in /  1022.6hPa WNW 0.3mph /  0.5km/h 4mph /  6.4km/h 77.8% 0.00in /  0mm 0 W/m2
04:29 57.9 °F /  14.4 °C 51.2 °F /  10.7 °C 30.20in /  1022.6hPa WNW 1mph /  1.6km/h 2mph /  3.2km/h 78.5% 0.00in /  0mm 0 W/m2
04:34 57.7 °F /  14.3 °C 51.3 °F /  10.7 °C 30.20in /  1022.6hPa WNW 0.8mph /  1.3km/h 3mph /  4.8km/h 79% 0.00in /  0mm 0 W/m2
04:39 57.7 °F /  14.3 °C 51.3 °F /  10.7 °C 30.20in /  1022.6hPa Calm     79% 0.00in /  0mm 0 W/m2
04:44 57.7 °F /  14.3 °C 51.5 °F /  10.8 °C 30.19in /  1022.2hPa Calm   1mph /  1.6km/h 79.7% 0.00in /  0mm 0 W/m2
04:49 57.6 °F /  14.2 °C 51.4 °F /  10.8 °C 30.20in /  1022.6hPa WNW 0.4mph /  0.6km/h 2mph /  3.2km/h 80% 0.00in /  0mm 0 W/m2
04:54 57.5 °F /  14.2 °C 51.3 °F /  10.7 °C 30.20in /  1022.6hPa WNW 1.2mph /  1.9km/h 3mph /  4.8km/h 80% 0.00in /  0mm 0 W/m2
04:59 57.2 °F /  14 °C 51.1 °F /  10.6 °C 30.20in /  1022.6hPa WNW 1.5mph /  2.4km/h 4mph /  6.4km/h 80% 0.00in /  0mm 0 W/m2
05:04 57.2 °F /  14 °C 51.1 °F /  10.6 °C 30.20in /  1022.6hPa WNW 0.8mph /  1.3km/h 3mph /  4.8km/h 80% 0.00in /  0mm 0 W/m2
05:09 57.2 °F /  14 °C 51.1 °F /  10.6 °C 30.20in /  1022.6hPa Calm     80% 0.00in /  0mm 0 W/m2
05:14 57.1 °F /  13.9 °C 51.3 °F /  10.7 °C 30.20in /  1022.6hPa Calm   1mph /  1.6km/h 80.7% 0.00in /  0mm 0 W/m2
05:19 57 °F /  13.9 °C 51.3 °F /  10.7 °C 30.20in /  1022.6hPa Calm     81% 0.00in /  0mm 5 W/m2
05:24 57 °F /  13.9 °C 51.3 °F /  10.7 °C 30.20in /  1022.6hPa Calm     81% 0.00in /  0mm 7 W/m2
05:29 57 °F /  13.9 °C 51.3 °F /  10.7 °C 30.20in /  1022.6hPa WNW 1.3mph /  2.1km/h 3mph /  4.8km/h 81% 0.00in /  0mm 9 W/m2
05:34 57 °F /  13.9 °C 51.3 °F /  10.7 °C 30.20in /  1022.6hPa WNW 0.1mph /  0.2km/h 3mph /  4.8km/h 81% 0.00in /  0mm 12 W/m2
05:39 56.9 °F /  13.8 °C 51.2 °F /  10.7 °C 30.20in /  1022.6hPa WNW 0.3mph /  0.5km/h 2mph /  3.2km/h 81% 0.00in /  0mm 16 W/m2
05:44 56.8 °F /  13.8 °C 51.1 °F /  10.6 °C 30.20in /  1022.6hPa WNW 0.2mph /  0.3km/h 2mph /  3.2km/h 81% 0.00in /  0mm 19 W/m2
05:49 56.8 °F /  13.8 °C 51.1 °F /  10.6 °C 30.20in /  1022.6hPa Calm   1mph /  1.6km/h 81% 0.00in /  0mm 21 W/m2
05:54 56.8 °F /  13.8 °C 51.1 °F /  10.6 °C 30.20in /  1022.6hPa SE 0.2mph /  0.3km/h 2mph /  3.2km/h 81% 0.00in /  0mm 19 W/m2
05:59 56.9 °F /  13.8 °C 51.2 °F /  10.7 °C 30.20in /  1022.6hPa SE 1.3mph /  2.1km/h 3mph /  4.8km/h 81.2% 0.00in /  0mm 23 W/m2
06:04 57 °F /  13.9 °C 51.3 °F /  10.7 °C 30.20in /  1022.6hPa SE 0.7mph /  1.1km/h 3mph /  4.8km/h 81.1% 0.00in /  0mm 23 W/m2
06:09 57.2 °F /  14 °C 51.4 °F /  10.8 °C 30.20in /  1022.6hPa Calm   1mph /  1.6km/h 81% 0.00in /  0mm 25 W/m2
06:14 57.2 °F /  14 °C 51.4 °F /  10.8 °C 30.20in /  1022.6hPa Calm     81% 0.00in /  0mm 26 W/m2
06:19 57.3 °F /  14.1 °C 51.5 °F /  10.8 °C 30.20in /  1022.6hPa Calm     81% 0.00in /  0mm 26 W/m2
06:24 57.4 °F /  14.1 °C 51.6 °F /  10.9 °C 30.20in /  1022.6hPa SE 0.2mph /  0.3km/h 1mph /  1.6km/h 81% 0.00in /  0mm 30 W/m2
06:29 57.5 °F /  14.2 °C 51.7 °F /  10.9 °C 30.20in /  1022.6hPa Calm   1mph /  1.6km/h 81% 0.00in /  0mm 32 W/m2
06:34 57.6 °F /  14.2 °C 51.7 °F /  10.9 °C 30.20in /  1022.6hPa SE 0.1mph /  0.2km/h 1mph /  1.6km/h 80.7% 0.00in /  0mm 37 W/m2
06:39 57.6 °F /  14.2 °C 51.6 °F /  10.9 °C 30.20in /  1022.6hPa SE 0.3mph /  0.5km/h 2mph /  3.2km/h 80.6% 0.00in /  0mm 40 W/m2
06:44 57.6 °F /  14.2 °C 51.7 °F /  10.9 °C 30.20in /  1022.6hPa SE 0.7mph /  1.1km/h 3mph /  4.8km/h 80.7% 0.00in /  0mm 42 W/m2
06:49 57.6 °F /  14.2 °C 51.8 °F /  11 °C 30.20in /  1022.6hPa SE 0.9mph /  1.4km/h 3mph /  4.8km/h 80.9% 0.00in /  0mm 46 W/m2
06:54 57.6 °F /  14.2 °C 51.8 °F /  11 °C 30.21in /  1022.9hPa Calm   1mph /  1.6km/h 81% 0.00in /  0mm 51 W/m2
06:59 57.5 °F /  14.2 °C 51.7 °F /  10.9 °C 30.21in /  1022.9hPa SE 0.5mph /  0.8km/h 2mph /  3.2km/h 81% 0.00in /  0mm 51 W/m2
07:04 57.3 °F /  14.1 °C 51.5 °F /  10.8 °C 30.21in /  1022.9hPa SE 0.4mph /  0.6km/h 2mph /  3.2km/h 81% 0.00in /  0mm 53 W/m2
07:09 57.2 °F /  14 °C 51.4 °F /  10.8 °C 30.21in /  1022.9hPa SE 0.1mph /  0.2km/h 2mph /  3.2km/h 81% 0.00in /  0mm 53 W/m2
07:14 57.2 °F /  14 °C 51.5 °F /  10.8 °C 30.21in /  1022.9hPa Calm   2mph /  3.2km/h 81.2% 0.00in /  0mm 53 W/m2
07:19 57.3 °F /  14.1 °C 51.7 °F /  10.9 °C 30.21in /  1022.9hPa Calm   1mph /  1.6km/h 81.5% 0.00in /  0mm 51 W/m2
07:24 57.4 °F /  14.1 °C 51.6 °F /  10.9 °C 30.21in /  1022.9hPa Calm     81% 0.00in /  0mm 54 W/m2
07:29 57.4 °F /  14.1 °C 51.6 °F /  10.9 °C 30.21in /  1022.9hPa SE 0.3mph /  0.5km/h 2mph /  3.2km/h 81% 0.00in /  0mm 58 W/m2
07:34 57.5 °F /  14.2 °C 52.1 °F /  11.2 °C 30.21in /  1022.9hPa ESE 2.1mph /  3.4km/h 5mph /  8km/h 81.9% 0.00in /  0mm 65 W/m2
07:39 57.6 °F /  14.2 °C 51.9 °F /  11.1 °C 30.21in /  1022.9hPa ESE 0.5mph /  0.8km/h 3mph /  4.8km/h 81.1% 0.00in /  0mm 153 W/m2
07:44 57.6 °F /  14.2 °C 52 °F /  11.1 °C 30.21in /  1022.9hPa ESE 0.2mph /  0.3km/h 2mph /  3.2km/h 81.5% 0.00in /  0mm 216 W/m2
07:49 57.8 °F /  14.3 °C 52.4 °F /  11.3 °C 30.21in /  1022.9hPa ESE 0.5mph /  0.8km/h 3mph /  4.8km/h 82% 0.00in /  0mm 243 W/m2
07:54 58.2 °F /  14.6 °C 52.7 °F /  11.5 °C 30.21in /  1022.9hPa ESE 0.6mph /  1km/h 4mph /  6.4km/h 81.8% 0.00in /  0mm 257 W/m2
07:59 58.6 °F /  14.8 °C 52.8 °F /  11.6 °C 30.21in /  1022.9hPa ESE 1.2mph /  1.9km/h 4mph /  6.4km/h 81% 0.00in /  0mm 322 W/m2
08:04 58.9 °F /  14.9 °C 53.1 °F /  11.7 °C 30.21in /  1022.9hPa ESE 2.2mph /  3.5km/h 5mph /  8km/h 81% 0.00in /  0mm 348 W/m2
08:09 59 °F /  15 °C 52.9 °F /  11.6 °C 30.21in /  1022.9hPa SSE 1.7mph /  2.7km/h 5mph /  8km/h 80% 0.00in /  0mm 352 W/m2
08:14 59.4 °F /  15.2 °C 53.2 °F /  11.8 °C 30.21in /  1022.9hPa SSE 1.3mph /  2.1km/h 5mph /  8km/h 80% 0.00in /  0mm 325 W/m2
08:19 59.6 °F /  15.3 °C 53.5 °F /  11.9 °C 30.21in /  1022.9hPa SE 2.7mph /  4.3km/h 6mph /  9.7km/h 79.9% 0.00in /  0mm 290 W/m2
08:24 59.8 °F /  15.4 °C 53.3 °F /  11.8 °C 30.21in /  1022.9hPa ESE 1.4mph /  2.3km/h 6mph /  9.7km/h 79% 0.00in /  0mm 336 W/m2
08:29 60.1 °F /  15.6 °C 53.6 °F /  12 °C 30.21in /  1022.9hPa ESE 1.3mph /  2.1km/h 5mph /  8km/h 79% 0.00in /  0mm 359 W/m2
08:34 60.1 °F /  15.6 °C 53.6 °F /  12 °C 30.21in /  1022.9hPa SE 3.3mph /  5.3km/h 7mph /  11.3km/h 79% 0.00in /  0mm 360 W/m2
08:39 60.1 °F /  15.6 °C 53.6 °F /  12 °C 30.21in /  1022.9hPa SE 3mph /  4.8km/h 6mph /  9.7km/h 79% 0.00in /  0mm 378 W/m2
08:44 60.5 °F /  15.8 °C 54 °F /  12.2 °C 30.21in /  1022.9hPa SE 3.7mph /  6km/h 8mph /  12.9km/h 79% 0.00in /  0mm 394 W/m2
08:49 61.2 °F /  16.2 °C 54.6 °F /  12.6 °C 30.21in /  1022.9hPa SE 1.4mph /  2.3km/h 8mph /  12.9km/h 78.8% 0.00in /  0mm 406 W/m2
08:54 61.9 °F /  16.6 °C 54.8 °F /  12.7 °C 30.21in /  1022.9hPa SE 1.2mph /  1.9km/h 6mph /  9.7km/h 77.6% 0.00in /  0mm 417 W/m2
08:59 62.2 °F /  16.8 °C 54.8 °F /  12.7 °C 30.22in /  1023.2hPa SE 3.7mph /  6km/h 8mph /  12.9km/h 76.9% 0.00in /  0mm 323 W/m2
09:04 62.2 °F /  16.8 °C 54.8 °F /  12.7 °C 30.21in /  1022.9hPa ESE 2.4mph /  3.9km/h 7mph /  11.3km/h 76.9% 0.00in /  0mm 315 W/m2
09:09 62.8 °F /  17.1 °C 55.1 °F /  12.8 °C 30.22in /  1023.2hPa ESE 2.5mph /  4km/h 8mph /  12.9km/h 76.2% 0.00in /  0mm 466 W/m2
09:14 63.6 °F /  17.6 °C 55.9 °F /  13.3 °C 30.21in /  1022.9hPa ENE 2.8mph /  4.5km/h 8mph /  12.9km/h 76.1% 0.00in /  0mm 475 W/m2
09:19 64 °F /  17.8 °C 55.8 °F /  13.2 °C 30.21in /  1022.9hPa ESE 2.5mph /  4km/h 8mph /  12.9km/h 74.8% 0.00in /  0mm 485 W/m2
09:24 64.2 °F /  17.9 °C 55.7 °F /  13.2 °C 30.21in /  1022.9hPa ESE 3.7mph /  6km/h 9mph /  14.5km/h 73.8% 0.00in /  0mm 508 W/m2
09:29 64.3 °F /  17.9 °C 55.7 °F /  13.2 °C 30.21in /  1022.9hPa SE 4.4mph /  7.1km/h 10mph /  16.1km/h 73.7% 0.00in /  0mm 515 W/m2
09:34 64 °F /  17.8 °C 55.6 °F /  13.1 °C 30.21in /  1022.9hPa SE 3.2mph /  5.1km/h 8mph /  12.9km/h 74.1% 0.00in /  0mm 531 W/m2
09:39 64 °F /  17.8 °C 55.8 °F /  13.2 °C 30.21in /  1022.9hPa SE 4.3mph /  6.9km/h 11mph /  17.7km/h 74.8% 0.00in /  0mm 540 W/m2
09:44 64 °F /  17.8 °C 55.7 °F /  13.2 °C 30.21in /  1022.9hPa SE 4mph /  6.4km/h 10mph /  16.1km/h 74.2% 0.00in /  0mm 554 W/m2
09:49 64.3 °F /  17.9 °C 56.2 °F /  13.4 °C 30.21in /  1022.9hPa SE 3.7mph /  6km/h 9mph /  14.5km/h 74.9% 0.00in /  0mm 587 W/m2
09:54 65.4 °F /  18.6 °C 56.7 °F /  13.7 °C 30.22in /  1023.2hPa East 4.7mph /  7.6km/h 10mph /  16.1km/h 73.4% 0.00in /  0mm 601 W/m2
09:59 65.2 °F /  18.4 °C 56.2 °F /  13.4 °C 30.21in /  1022.9hPa ESE 2.7mph /  4.3km/h 9mph /  14.5km/h 72.5% 0.00in /  0mm 642 W/m2
10:04 65.5 °F /  18.6 °C 56.5 °F /  13.6 °C 30.21in /  1022.9hPa ESE 4.6mph /  7.4km/h 10mph /  16.1km/h 72.7% 0.00in /  0mm 663 W/m2
10:09 65.5 °F /  18.6 °C 56.2 °F /  13.4 °C 30.21in /  1022.9hPa SE 4.6mph /  7.4km/h 11mph /  17.7km/h 72.1% 0.00in /  0mm 645 W/m2
10:14 65.8 °F /  18.8 °C 56.4 °F /  13.6 °C 30.21in /  1022.9hPa ENE 2.6mph /  4.2km/h 8mph /  12.9km/h 71.7% 0.00in /  0mm 636 W/m2
10:19 66.2 °F /  19 °C 56.8 °F /  13.8 °C 30.21in /  1022.9hPa East 2.3mph /  3.7km/h 8mph /  12.9km/h 71.8% 0.00in /  0mm 638 W/m2
10:24 66.6 °F /  19.2 °C 56.6 °F /  13.7 °C 30.21in /  1022.9hPa ESE 5.2mph /  8.4km/h 10mph /  16.1km/h 70.2% 0.00in /  0mm 640 W/m2
10:29 66.8 °F /  19.3 °C 56.6 °F /  13.7 °C 30.21in /  1022.9hPa ESE 4.1mph /  6.6km/h 10mph /  16.1km/h 69.6% 0.00in /  0mm 650 W/m2
10:34 67.3 °F /  19.6 °C 56.8 °F /  13.8 °C 30.21in /  1022.9hPa ESE 3.6mph /  5.8km/h 10mph /  16.1km/h 68.9% 0.00in /  0mm 661 W/m2
10:39 66.8 °F /  19.3 °C 56.3 °F /  13.5 °C 30.21in /  1022.9hPa SE 3.2mph /  5.1km/h 10mph /  16.1km/h 68.9% 0.00in /  0mm 694 W/m2
10:44 66.5 °F /  19.2 °C 56.5 °F /  13.6 °C 30.21in /  1022.9hPa SE 2.4mph /  3.9km/h 7mph /  11.3km/h 70.3% 0.00in /  0mm 705 W/m2
10:49 68.4 °F /  20.2 °C 57.5 °F /  14.2 °C 30.21in /  1022.9hPa ESE 2.3mph /  3.7km/h 7mph /  11.3km/h 68% 0.00in /  0mm 717 W/m2
10:54 69.4 °F /  20.8 °C 57.3 °F /  14.1 °C 30.21in /  1022.9hPa East 3mph /  4.8km/h 7mph /  11.3km/h 65.4% 0.00in /  0mm 729 W/m2
10:59 69.3 °F /  20.7 °C 57.2 °F /  14 °C 30.21in /  1022.9hPa East 3.2mph /  5.1km/h 8mph /  12.9km/h 65.1% 0.00in /  0mm 737 W/m2
11:04 70.2 °F /  21.2 °C 57.7 °F /  14.3 °C 30.21in /  1022.9hPa ESE 2.9mph /  4.7km/h 7mph /  11.3km/h 64.4% 0.00in /  0mm 809 W/m2
11:09 70.4 °F /  21.3 °C 57.6 °F /  14.2 °C 30.21in /  1022.9hPa East 3mph /  4.8km/h 7mph /  11.3km/h 64% 0.00in /  0mm 868 W/m2
11:14 69.8 °F /  21 °C 58.6 °F /  14.8 °C 30.21in /  1022.9hPa ENE 3.3mph /  5.3km/h 9mph /  14.5km/h 67.7% 0.00in /  0mm 853 W/m2
11:19 70.3 °F /  21.3 °C 59.1 °F /  15.1 °C 30.21in /  1022.9hPa ESE 4.4mph /  7.1km/h 10mph /  16.1km/h 67.8% 0.00in /  0mm 912 W/m2
11:24 70.3 °F /  21.3 °C 58.8 °F /  14.9 °C 30.21in /  1022.9hPa SE 3.2mph /  5.1km/h 8mph /  12.9km/h 67% 0.00in /  0mm 916 W/m2
11:29 70.1 °F /  21.2 °C 58.7 °F /  14.8 °C 30.21in /  1022.9hPa East 3.5mph /  5.6km/h 9mph /  14.5km/h 67.3% 0.00in /  0mm 313 W/m2
11:34 70.3 °F /  21.3 °C 59.3 °F /  15.2 °C 30.21in /  1022.9hPa ENE 2.6mph /  4.2km/h 9mph /  14.5km/h 67.8% 0.00in /  0mm 951 W/m2
11:39 70.3 °F /  21.3 °C 58.8 °F /  14.9 °C 30.21in /  1022.9hPa SE 4.5mph /  7.2km/h 11mph /  17.7km/h 67.1% 0.00in /  0mm 951 W/m2
11:44 70.6 °F /  21.4 °C 59.3 °F /  15.2 °C 30.21in /  1022.9hPa East 3.2mph /  5.1km/h 9mph /  14.5km/h 67.5% 0.00in /  0mm 858 W/m2
11:49 71.4 °F /  21.9 °C 59.6 °F /  15.3 °C 30.21in /  1022.9hPa East 2.6mph /  4.2km/h 8mph /  12.9km/h 66.1% 0.00in /  0mm 868 W/m2
11:54 70.8 °F /  21.6 °C 59 °F /  15 °C 30.21in /  1022.9hPa ESE 4.8mph /  7.7km/h 11mph /  17.7km/h 66.2% 0.00in /  0mm 977 W/m2
11:59 70.2 °F /  21.2 °C 58.9 °F /  14.9 °C 30.21in /  1022.9hPa SE 3.4mph /  5.5km/h 11mph /  17.7km/h 67.5% 0.00in /  0mm 958 W/m2
12:04 71.1 °F /  21.7 °C 59.6 °F /  15.3 °C 30.21in /  1022.9hPa ESE 2.9mph /  4.7km/h 8mph /  12.9km/h 67% 0.00in /  0mm 1028 W/m2
12:09 72.3 °F /  22.4 °C 59.8 °F /  15.4 °C 30.21in /  1022.9hPa ESE 3.9mph /  6.3km/h 10mph /  16.1km/h 64.8% 0.00in /  0mm 1028 W/m2
12:14 71.4 °F /  21.9 °C 59.1 °F /  15.1 °C 30.21in /  1022.9hPa ENE 1.8mph /  2.9km/h 6mph /  9.7km/h 65.1% 0.00in /  0mm 940 W/m2
12:19 72.2 °F /  22.3 °C 59.9 °F /  15.5 °C 30.21in /  1022.9hPa ENE 3.1mph /  5km/h 8mph /  12.9km/h 65.4% 0.00in /  0mm 1011 W/m2
12:24 72.5 °F /  22.5 °C 59.6 °F /  15.3 °C 30.21in /  1022.9hPa ESE 4.4mph /  7.1km/h 11mph /  17.7km/h 64% 0.00in /  0mm 1004 W/m2
12:29 71.9 °F /  22.2 °C 59.3 °F /  15.2 °C 30.21in /  1022.9hPa ENE 5.7mph /  9.2km/h 11mph /  17.7km/h 64.5% 0.00in /  0mm 1004 W/m2
12:34 70.9 °F /  21.6 °C 58.8 °F /  14.9 °C 30.21in /  1022.9hPa NE 4.5mph /  7.2km/h 10mph /  16.1km/h 65.6% 0.00in /  0mm 406 W/m2
12:39 70.3 °F /  21.3 °C 58.6 °F /  14.8 °C 30.21in /  1022.9hPa NNE 4.5mph /  7.2km/h 11mph /  17.7km/h 66.4% 0.00in /  0mm 464 W/m2
12:44 69.7 °F /  20.9 °C 58.3 °F /  14.6 °C 30.21in /  1022.9hPa NNE 6mph /  9.7km/h 11mph /  17.7km/h 67.1% 0.00in /  0mm 1037 W/m2
12:49 69.5 °F /  20.8 °C 58.4 °F /  14.7 °C 30.21in /  1022.9hPa NE 7.3mph /  11.7km/h 12mph /  19.3km/h 67.8% 0.00in /  0mm 506 W/m2
12:54 69.6 °F /  20.9 °C 58.8 °F /  14.9 °C 30.21in /  1022.9hPa ENE 3.4mph /  5.5km/h 11mph /  17.7km/h 68.4% 0.00in /  0mm 338 W/m2
12:59 70.5 °F /  21.4 °C 59 °F /  15 °C 30.21in /  1022.9hPa ENE 5.7mph /  9.2km/h 11mph /  17.7km/h 67.1% 0.00in /  0mm 260 W/m2
13:04 70.1 °F /  21.2 °C 58.6 °F /  14.8 °C 30.21in /  1022.9hPa NE 5.1mph /  8.2km/h 11mph /  17.7km/h 66.9% 0.00in /  0mm 976 W/m2
13:09 70.5 °F /  21.4 °C 58.6 °F /  14.8 °C 30.21in /  1022.9hPa ENE 4.8mph /  7.7km/h 10mph /  16.1km/h 66% 0.00in /  0mm 972 W/m2
13:14 71.3 °F /  21.8 °C 58.6 °F /  14.8 °C 30.21in /  1022.9hPa ENE 3.4mph /  5.5km/h 8mph /  12.9km/h 64.2% 0.00in /  0mm 401 W/m2
13:19 71.4 °F /  21.9 °C 58.1 °F /  14.5 °C 30.21in /  1022.9hPa NE 3.1mph /  5km/h 7mph /  11.3km/h 62.8% 0.00in /  0mm 1002 W/m2
13:24 72 °F /  22.2 °C 58.2 °F /  14.6 °C 30.20in /  1022.6hPa ESE 3.8mph /  6.1km/h 8mph /  12.9km/h 61.9% 0.00in /  0mm 1002 W/m2
13:29 71.5 °F /  21.9 °C 57.7 °F /  14.3 °C 30.20in /  1022.6hPa NE 4mph /  6.4km/h 9mph /  14.5km/h 61.6% 0.00in /  0mm 1002 W/m2
13:34 71.7 °F /  22.1 °C 58 °F /  14.4 °C 30.20in /  1022.6hPa SE 3.5mph /  5.6km/h 9mph /  14.5km/h 62% 0.00in /  0mm 1016 W/m2
13:39 72.6 °F /  22.6 °C 58.7 °F /  14.8 °C 30.20in /  1022.6hPa East 2.7mph /  4.3km/h 8mph /  12.9km/h 61.6% 0.00in /  0mm 1042 W/m2
13:44 73.5 °F /  23.1 °C 59.1 °F /  15.1 °C 30.20in /  1022.6hPa ENE 3.5mph /  5.6km/h 9mph /  14.5km/h 60.7% 0.00in /  0mm 1035 W/m2
13:49 73.8 °F /  23.2 °C 58.9 °F /  14.9 °C 30.20in /  1022.6hPa ENE 5.7mph /  9.2km/h 11mph /  17.7km/h 59.8% 0.00in /  0mm 995 W/m2
13:54 73.7 °F /  23.2 °C 58.5 °F /  14.7 °C 30.20in /  1022.6hPa ENE 4.6mph /  7.4km/h 11mph /  17.7km/h 59% 0.00in /  0mm 995 W/m2
13:59 73.1 °F /  22.8 °C 58 °F /  14.4 °C 30.20in /  1022.6hPa East 2.6mph /  4.2km/h 7mph /  11.3km/h 59.2% 0.00in /  0mm 267 W/m2
14:04 73.3 °F /  22.9 °C 58.2 °F /  14.6 °C 30.20in /  1022.6hPa ESE 2.1mph /  3.4km/h 7mph /  11.3km/h 59.1% 0.00in /  0mm 821 W/m2
14:09 74.6 °F /  23.7 °C 58.8 °F /  14.9 °C 30.20in /  1022.6hPa NE 2.8mph /  4.5km/h 7mph /  11.3km/h 58% 0.00in /  0mm 963 W/m2
14:14 74.5 °F /  23.6 °C 58.6 °F /  14.8 °C 30.20in /  1022.6hPa NE 3.4mph /  5.5km/h 11mph /  17.7km/h 57.7% 0.00in /  0mm 960 W/m2
14:19 73.4 °F /  23 °C 57.5 °F /  14.2 °C 30.20in /  1022.6hPa NE 7.9mph /  12.7km/h 12mph /  19.3km/h 57.4% 0.00in /  0mm 909 W/m2
14:24 72.9 °F /  22.7 °C 58.2 °F /  14.6 °C 30.20in /  1022.6hPa NNE 3mph /  4.8km/h 11mph /  17.7km/h 60% 0.00in /  0mm 900 W/m2
14:29 74 °F /  23.3 °C 58.9 °F /  14.9 °C 30.19in /  1022.2hPa ENE 5.1mph /  8.2km/h 11mph /  17.7km/h 59.3% 0.00in /  0mm 891 W/m2
14:34 74.6 °F /  23.7 °C 58.5 °F /  14.7 °C 30.19in /  1022.2hPa ESE 6.4mph /  10.3km/h 12mph /  19.3km/h 57.4% 0.00in /  0mm 944 W/m2
14:39 74.5 °F /  23.6 °C 58.8 °F /  14.9 °C 30.19in /  1022.2hPa ESE 4.1mph /  6.6km/h 12mph /  19.3km/h 58% 0.00in /  0mm 937 W/m2
14:44 74.4 °F /  23.6 °C 59 °F /  15 °C 30.20in /  1022.6hPa East 4.9mph /  7.9km/h 12mph /  19.3km/h 58.8% 0.00in /  0mm 914 W/m2
14:49 74.8 °F /  23.8 °C 59.1 °F /  15.1 °C 30.19in /  1022.2hPa ENE 3.9mph /  6.3km/h 12mph /  19.3km/h 58.4% 0.00in /  0mm 900 W/m2
14:54 73.7 °F /  23.2 °C 58.3 °F /  14.6 °C 30.19in /  1022.2hPa NNE 2.7mph /  4.3km/h 9mph /  14.5km/h 58.6% 0.00in /  0mm 830 W/m2
14:59 74.3 °F /  23.5 °C 58.9 °F /  14.9 °C 30.19in /  1022.2hPa ENE 3.6mph /  5.8km/h 9mph /  14.5km/h 58.9% 0.00in /  0mm 867 W/m2
15:04 75.2 °F /  24 °C 59.4 °F /  15.2 °C 30.19in /  1022.2hPa ENE 3.9mph /  6.3km/h 9mph /  14.5km/h 58.2% 0.00in /  0mm 867 W/m2
15:09 74.9 °F /  23.8 °C 59.2 °F /  15.1 °C 30.19in /  1022.2hPa ENE 4.1mph /  6.6km/h 9mph /  14.5km/h 58.1% 0.00in /  0mm 851 W/m2
15:14 74.2 °F /  23.4 °C 58.7 °F /  14.8 °C 30.19in /  1022.2hPa NE 4.6mph /  7.4km/h 10mph /  16.1km/h 58.5% 0.00in /  0mm 847 W/m2
15:19 73.9 °F /  23.3 °C 58.4 °F /  14.7 °C 30.19in /  1022.2hPa NNE 6.5mph /  10.5km/h 15mph /  24.1km/h 58.4% 0.00in /  0mm 863 W/m2
15:24 73.6 °F /  23.1 °C 58.8 °F /  14.9 °C 30.19in /  1022.2hPa East 3mph /  4.8km/h 15mph /  24.1km/h 59.8% 0.00in /  0mm 958 W/m2
15:29 74.9 °F /  23.8 °C 59.3 °F /  15.2 °C 30.19in /  1022.2hPa ESE 2.6mph /  4.2km/h 8mph /  12.9km/h 58.4% 0.00in /  0mm 962 W/m2
15:34 75.4 °F /  24.1 °C 59.4 °F /  15.2 °C 30.19in /  1022.2hPa NE 4.2mph /  6.8km/h 10mph /  16.1km/h 57.5% 0.00in /  0mm 278 W/m2
15:39 74.2 °F /  23.4 °C 58.9 °F /  14.9 °C 30.19in /  1022.2hPa NE 6.3mph /  10.1km/h 11mph /  17.7km/h 59% 0.00in /  0mm 868 W/m2
15:44 73.5 °F /  23.1 °C 59.2 °F /  15.1 °C 30.19in /  1022.2hPa ENE 5mph /  8km/h 12mph /  19.3km/h 60.8% 0.00in /  0mm 889 W/m2
15:49 74.6 °F /  23.7 °C 59.8 °F /  15.4 °C 30.19in /  1022.2hPa ENE 4.6mph /  7.4km/h 11mph /  17.7km/h 59.9% 0.00in /  0mm 831 W/m2
15:54 74.8 °F /  23.8 °C 59.5 °F /  15.3 °C 30.19in /  1022.2hPa East 5.9mph /  9.5km/h 12mph /  19.3km/h 59% 0.00in /  0mm 784 W/m2
15:59 74.3 °F /  23.5 °C 59.5 °F /  15.3 °C 30.19in /  1022.2hPa NE 4.5mph /  7.2km/h 14mph /  22.5km/h 59.9% 0.00in /  0mm 751 W/m2
16:04 75.1 °F /  23.9 °C 59.5 °F /  15.3 °C 30.19in /  1022.2hPa ENE 3.7mph /  6km/h 14mph /  22.5km/h 58.3% 0.00in /  0mm 752 W/m2
16:09 75.9 °F /  24.4 °C 59.5 °F /  15.3 °C 30.19in /  1022.2hPa East 4.8mph /  7.7km/h 12mph /  19.3km/h 57% 0.00in /  0mm 747 W/m2
16:14 75.9 °F /  24.4 °C 59.2 °F /  15.1 °C 30.19in /  1022.2hPa East 5.1mph /  8.2km/h 12mph /  19.3km/h 56.3% 0.00in /  0mm 803 W/m2
16:19 74.9 °F /  23.8 °C 58.8 °F /  14.9 °C 30.19in /  1022.2hPa ENE 2.5mph /  4km/h 12mph /  19.3km/h 57.1% 0.00in /  0mm 729 W/m2
16:24 74.3 °F /  23.5 °C 58.9 °F /  14.9 °C 30.19in /  1022.2hPa ESE 4.4mph /  7.1km/h 12mph /  19.3km/h 58.6% 0.00in /  0mm 729 W/m2
16:29 74.5 °F /  23.6 °C 59.1 °F /  15.1 °C 30.19in /  1022.2hPa ENE 3.1mph /  5km/h 9mph /  14.5km/h 58.9% 0.00in /  0mm 751 W/m2
16:34 73.7 °F /  23.2 °C 58.4 °F /  14.7 °C 30.20in /  1022.6hPa NNE 4.9mph /  7.9km/h 12mph /  19.3km/h 58.8% 0.00in /  0mm 253 W/m2
16:39 71.9 °F /  22.2 °C 57.8 °F /  14.3 °C 30.20in /  1022.6hPa NE 5.6mph /  9km/h 12mph /  19.3km/h 61% 0.00in /  0mm 701 W/m2
16:44 72.1 °F /  22.3 °C 58.2 °F /  14.6 °C 30.19in /  1022.2hPa ESE 4.8mph /  7.7km/h 10mph /  16.1km/h 61.6% 0.00in /  0mm 687 W/m2
16:49 72.5 °F /  22.5 °C 58.3 °F /  14.6 °C 30.19in /  1022.2hPa East 3.6mph /  5.8km/h 10mph /  16.1km/h 61% 0.00in /  0mm 659 W/m2
16:54 73.1 °F /  22.8 °C 58.3 °F /  14.6 °C 30.19in /  1022.2hPa ENE 5.4mph /  8.7km/h 14mph /  22.5km/h 59.9% 0.00in /  0mm 628 W/m2
16:59 73 °F /  22.8 °C 58.1 °F /  14.5 °C 30.19in /  1022.2hPa ENE 4mph /  6.4km/h 14mph /  22.5km/h 59.7% 0.00in /  0mm 617 W/m2
17:04 73.2 °F /  22.9 °C 58.2 °F /  14.6 °C 30.19in /  1022.2hPa ESE 3mph /  4.8km/h 10mph /  16.1km/h 59.4% 0.00in /  0mm 598 W/m2
17:09 73 °F /  22.8 °C 58 °F /  14.4 °C 30.19in /  1022.2hPa East 7.9mph /  12.7km/h 14mph /  22.5km/h 59.2% 0.00in /  0mm 594 W/m2
17:14 73.1 °F /  22.8 °C 58.2 °F /  14.6 °C 30.19in /  1022.2hPa ENE 5mph /  8km/h 14mph /  22.5km/h 59.6% 0.00in /  0mm 605 W/m2
17:19 73.1 °F /  22.8 °C 58 °F /  14.4 °C 30.19in /  1022.2hPa ENE 5.5mph /  8.9km/h 13mph /  20.9km/h 59% 0.00in /  0mm 577 W/m2
17:24 73 °F /  22.8 °C 57.6 °F /  14.2 °C 30.19in /  1022.2hPa NE 5.2mph /  8.4km/h 11mph /  17.7km/h 58.3% 0.00in /  0mm 575 W/m2
17:29 73.1 °F /  22.8 °C 57.6 °F /  14.2 °C 30.19in /  1022.2hPa ENE 4.3mph /  6.9km/h 11mph /  17.7km/h 58.5% 0.00in /  0mm 584 W/m2
17:34 73.4 °F /  23 °C 57.7 °F /  14.3 °C 30.19in /  1022.2hPa ESE 5.6mph /  9km/h 12mph /  19.3km/h 58% 0.00in /  0mm 592 W/m2
17:39 73.4 °F /  23 °C 57.6 °F /  14.2 °C 30.19in /  1022.2hPa ESE 5.7mph /  9.2km/h 12mph /  19.3km/h 57.6% 0.00in /  0mm 566 W/m2
17:44 73.1 °F /  22.8 °C 57.3 °F /  14.1 °C 30.19in /  1022.2hPa NE 4.2mph /  6.8km/h 12mph /  19.3km/h 57.8% 0.00in /  0mm 448 W/m2
17:49 72.8 °F /  22.7 °C 56.6 °F /  13.7 °C 30.19in /  1022.2hPa ESE 3.8mph /  6.1km/h 11mph /  17.7km/h 57% 0.00in /  0mm 489 W/m2
17:54 72.8 °F /  22.7 °C 56.8 °F /  13.8 °C 30.19in /  1022.2hPa NE 3.6mph /  5.8km/h 11mph /  17.7km/h 57.3% 0.00in /  0mm 478 W/m2
17:59 73.2 °F /  22.9 °C 56.7 °F /  13.7 °C 30.19in /  1022.2hPa ENE 4.9mph /  7.9km/h 13mph /  20.9km/h 56.4% 0.00in /  0mm 466 W/m2
18:04 73 °F /  22.8 °C 56.7 °F /  13.7 °C 30.19in /  1022.2hPa ENE 2.1mph /  3.4km/h 9mph /  14.5km/h 56.8% 0.00in /  0mm 452 W/m2
18:09 73.3 °F /  22.9 °C 57 °F /  13.9 °C 30.19in /  1022.2hPa East 3.6mph /  5.8km/h 9mph /  14.5km/h 56.8% 0.00in /  0mm 434 W/m2
18:14 73.5 °F /  23.1 °C 57.3 °F /  14.1 °C 30.19in /  1022.2hPa NE 4.8mph /  7.7km/h 11mph /  17.7km/h 56.9% 0.00in /  0mm 417 W/m2
18:19 73.5 °F /  23.1 °C 57 °F /  13.9 °C 30.19in /  1022.2hPa East 2mph /  3.2km/h 8mph /  12.9km/h 56.5% 0.00in /  0mm 404 W/m2
18:24 73.8 °F /  23.2 °C 57 °F /  13.9 °C 30.19in /  1022.2hPa ENE 2.4mph /  3.9km/h 6mph /  9.7km/h 55.8% 0.00in /  0mm 385 W/m2
18:29 73.7 °F /  23.2 °C 56.8 °F /  13.8 °C 30.19in /  1022.2hPa ESE 2mph /  3.2km/h 7mph /  11.3km/h 55.5% 0.00in /  0mm 373 W/m2
18:34 73.7 °F /  23.2 °C 56.7 °F /  13.7 °C 30.19in /  1022.2hPa East 3.8mph /  6.1km/h 8mph /  12.9km/h 55.3% 0.00in /  0mm 360 W/m2
18:39 73.8 °F /  23.2 °C 56.7 °F /  13.7 °C 30.19in /  1022.2hPa ESE 2.2mph /  3.5km/h 8mph /  12.9km/h 55% 0.00in /  0mm 346 W/m2
18:44 73.8 °F /  23.2 °C 56.9 °F /  13.8 °C 30.19in /  1022.2hPa ENE 2.3mph /  3.7km/h 6mph /  9.7km/h 55.6% 0.00in /  0mm 334 W/m2
18:49 73.4 °F /  23 °C 56.7 °F /  13.7 °C 30.19in /  1022.2hPa NNE 1.8mph /  2.9km/h 6mph /  9.7km/h 55.9% 0.00in /  0mm 316 W/m2
18:54 73.6 °F /  23.1 °C 56.9 °F /  13.8 °C 30.19in /  1022.2hPa ENE 2.4mph /  3.9km/h 9mph /  14.5km/h 56% 0.00in /  0mm 306 W/m2
18:59 74 °F /  23.3 °C 56.9 °F /  13.8 °C 30.19in /  1022.2hPa ENE 2.5mph /  4km/h 9mph /  14.5km/h 55.2% 0.00in /  0mm 290 W/m2
19:04 74 °F /  23.3 °C 57.3 °F /  14.1 °C 30.18in /  1021.9hPa East 2.8mph /  4.5km/h 9mph /  14.5km/h 56% 0.00in /  0mm 281 W/m2
19:09 73.6 °F /  23.1 °C 57.2 °F /  14 °C 30.18in /  1021.9hPa ESE 3.1mph /  5km/h 8mph /  12.9km/h 56.7% 0.00in /  0mm 267 W/m2
19:14 72.8 °F /  22.7 °C 57 °F /  13.9 °C 30.19in /  1022.2hPa ESE 3.8mph /  6.1km/h 9mph /  14.5km/h 57.7% 0.00in /  0mm 251 W/m2
19:19 72.3 °F /  22.4 °C 57.3 °F /  14.1 °C 30.18in /  1021.9hPa East 3.8mph /  6.1km/h 8mph /  12.9km/h 59.3% 0.00in /  0mm 237 W/m2
19:24 72.5 °F /  22.5 °C 57.5 °F /  14.2 °C 30.18in /  1021.9hPa East 2.4mph /  3.9km/h 9mph /  14.5km/h 59.4% 0.00in /  0mm 225 W/m2
19:29 72.7 °F /  22.6 °C 57.3 °F /  14.1 °C 30.18in /  1021.9hPa East 3.7mph /  6km/h 9mph /  14.5km/h 58.5% 0.00in /  0mm 213 W/m2
19:34 72.9 °F /  22.7 °C 57.1 °F /  13.9 °C 30.18in /  1021.9hPa ESE 0.5mph /  0.8km/h 4mph /  6.4km/h 57.8% 0.00in /  0mm 197 W/m2
19:39 72.9 °F /  22.7 °C 56.7 °F /  13.7 °C 30.18in /  1021.9hPa NE 1.8mph /  2.9km/h 5mph /  8km/h 57% 0.00in /  0mm 179 W/m2
19:44 72.6 °F /  22.6 °C 56.3 °F /  13.5 °C 30.18in /  1021.9hPa ENE 4.4mph /  7.1km/h 9mph /  14.5km/h 56.6% 0.00in /  0mm 165 W/m2
19:49 72.3 °F /  22.4 °C 56.5 °F /  13.6 °C 30.18in /  1021.9hPa NE 2.1mph /  3.4km/h 7mph /  11.3km/h 57.4% 0.00in /  0mm 151 W/m2
19:54 72.3 °F /  22.4 °C 56.9 °F /  13.8 °C 30.18in /  1021.9hPa NE 1.7mph /  2.7km/h 8mph /  12.9km/h 58.4% 0.00in /  0mm 135 W/m2
19:59 72.2 °F /  22.3 °C 57.1 °F /  13.9 °C 30.18in /  1021.9hPa NE 3mph /  4.8km/h 7mph /  11.3km/h 59% 0.00in /  0mm 120 W/m2
20:04 72 °F /  22.2 °C 57.3 °F /  14.1 °C 30.18in /  1021.9hPa NE 1.4mph /  2.3km/h 7mph /  11.3km/h 59.9% 0.00in /  0mm 109 W/m2
20:09 71.8 °F /  22.1 °C 57.3 °F /  14.1 °C 30.18in /  1021.9hPa NE 2.4mph /  3.9km/h 5mph /  8km/h 60% 0.00in /  0mm 98 W/m2
20:14 71.6 °F /  22 °C 57.4 °F /  14.1 °C 30.18in /  1021.9hPa ENE 2.4mph /  3.9km/h 7mph /  11.3km/h 61% 0.00in /  0mm 86 W/m2
20:19 71.6 °F /  22 °C 57.4 °F /  14.1 °C 30.18in /  1021.9hPa ENE 2mph /  3.2km/h 7mph /  11.3km/h 61% 0.00in /  0mm 74 W/m2
20:24 71.8 °F /  22.1 °C 57.6 °F /  14.2 °C 30.18in /  1021.9hPa ENE 1.8mph /  2.9km/h 7mph /  11.3km/h 61% 0.00in /  0mm 62 W/m2
20:29 71.9 °F /  22.2 °C 57.7 °F /  14.3 °C 30.18in /  1021.9hPa NE 1.8mph /  2.9km/h 5mph /  8km/h 61% 0.00in /  0mm 51 W/m2
20:34 71.4 °F /  21.9 °C 57.3 °F /  14.1 °C 30.18in /  1021.9hPa ENE 3.7mph /  6km/h 8mph /  12.9km/h 61.2% 0.00in /  0mm 40 W/m2
20:39 70.7 °F /  21.5 °C 57.3 °F /  14.1 °C 30.18in /  1021.9hPa NE 3mph /  4.8km/h 8mph /  12.9km/h 62.4% 0.00in /  0mm 32 W/m2
20:44 70.3 °F /  21.3 °C 57.4 °F /  14.1 °C 30.18in /  1021.9hPa ENE 2.8mph /  4.5km/h 8mph /  12.9km/h 63.7% 0.00in /  0mm 25 W/m2
20:49 69.8 °F /  21 °C 57.4 °F /  14.1 °C 30.19in /  1022.2hPa NE 4.4mph /  7.1km/h 12mph /  19.3km/h 64.7% 0.00in /  0mm 21 W/m2
20:54 69.2 °F /  20.7 °C 57.2 °F /  14 °C 30.19in /  1022.2hPa NE 1.3mph /  2.1km/h 12mph /  19.3km/h 65.8% 0.00in /  0mm 18 W/m2
20:59 68.8 °F /  20.4 °C 57.3 °F /  14.1 °C 30.19in /  1022.2hPa ENE 2mph /  3.2km/h 7mph /  11.3km/h 66.6% 0.00in /  0mm 16 W/m2
21:04 68.5 °F /  20.3 °C 57.2 °F /  14 °C 30.19in /  1022.2hPa East 4.2mph /  6.8km/h 10mph /  16.1km/h 67% 0.00in /  0mm 12 W/m2
21:09 68 °F /  20 °C 56.7 °F /  13.7 °C 30.19in /  1022.2hPa ESE 2.5mph /  4km/h 7mph /  11.3km/h 67.3% 0.00in /  0mm 11 W/m2
21:14 67.5 °F /  19.7 °C 56.5 °F /  13.6 °C 30.19in /  1022.2hPa ESE 2mph /  3.2km/h 7mph /  11.3km/h 67.9% 0.00in /  0mm 9 W/m2
21:19 67.2 °F /  19.6 °C 56.3 °F /  13.5 °C 30.19in /  1022.2hPa East 1mph /  1.6km/h 5mph /  8km/h 68.3% 0.00in /  0mm 5 W/m2
21:24 67 °F /  19.4 °C 56.6 °F /  13.7 °C 30.19in /  1022.2hPa East 1mph /  1.6km/h 5mph /  8km/h 69% 0.00in /  0mm 5 W/m2
21:29 66.8 °F /  19.3 °C 56.4 °F /  13.6 °C 30.19in /  1022.2hPa East 0.2mph /  0.3km/h 5mph /  8km/h 69% 0.00in /  0mm 0 W/m2
21:34 66.7 °F /  19.3 °C 56.2 °F /  13.4 °C 30.19in /  1022.2hPa East 1.3mph /  2.1km/h 6mph /  9.7km/h 69% 0.00in /  0mm 0 W/m2
21:39 66.5 °F /  19.2 °C 56.1 °F /  13.4 °C 30.19in /  1022.2hPa East 0.7mph /  1.1km/h 5mph /  8km/h 69.1% 0.00in /  0mm 0 W/m2
21:44 66.3 °F /  19.1 °C 56.2 °F /  13.4 °C 30.19in /  1022.2hPa ENE 0.6mph /  1km/h 5mph /  8km/h 70% 0.00in /  0mm 0 W/m2
21:49 66.1 °F /  18.9 °C 56 °F /  13.3 °C 30.20in /  1022.6hPa ENE 0.5mph /  0.8km/h 5mph /  8km/h 70% 0.00in /  0mm 0 W/m2
21:54 65.8 °F /  18.8 °C 55.8 °F /  13.2 °C 30.20in /  1022.6hPa ENE 0.9mph /  1.4km/h 5mph /  8km/h 70% 0.00in /  0mm 0 W/m2
21:59 65.6 °F /  18.7 °C 55.5 °F /  13.1 °C 30.20in /  1022.6hPa NE 1.3mph /  2.1km/h 5mph /  8km/h 70% 0.00in /  0mm 0 W/m2
22:04 65.3 °F /  18.5 °C 55.5 °F /  13.1 °C 30.20in /  1022.6hPa NE 0.7mph /  1.1km/h 4mph /  6.4km/h 70.8% 0.00in /  0mm 0 W/m2
22:09 65 °F /  18.3 °C 55.4 °F /  13 °C 30.20in /  1022.6hPa East 1mph /  1.6km/h 5mph /  8km/h 71% 0.00in /  0mm 0 W/m2
22:14 64.8 °F /  18.2 °C 55.2 °F /  12.9 °C 30.20in /  1022.6hPa ESE 0.8mph /  1.3km/h 4mph /  6.4km/h 71% 0.00in /  0mm 0 W/m2
22:19 64.7 °F /  18.2 °C 55.1 °F /  12.8 °C 30.20in /  1022.6hPa Calm   1mph /  1.6km/h 71% 0.00in /  0mm 0 W/m2
22:24 64.4 °F /  18 °C 55 °F /  12.8 °C 30.20in /  1022.6hPa ESE 0.6mph /  1km/h 4mph /  6.4km/h 71.2% 0.00in /  0mm 0 W/m2
22:29 64.3 °F /  17.9 °C 55.1 °F /  12.8 °C 30.20in /  1022.6hPa East 1.7mph /  2.7km/h 6mph /  9.7km/h 72% 0.00in /  0mm 0 W/m2
22:34 64.1 °F /  17.8 °C 54.9 °F /  12.7 °C 30.20in /  1022.6hPa East 0.6mph /  1km/h 5mph /  8km/h 72% 0.00in /  0mm 0 W/m2
22:39 64 °F /  17.8 °C 54.8 °F /  12.7 °C 30.20in /  1022.6hPa ENE 0.6mph /  1km/h 3mph /  4.8km/h 72% 0.00in /  0mm 0 W/m2
22:44 63.8 °F /  17.7 °C 54.6 °F /  12.6 °C 30.20in /  1022.6hPa ENE 0.7mph /  1.1km/h 3mph /  4.8km/h 72% 0.00in /  0mm 0 W/m2
22:49 63.5 °F /  17.5 °C 54.5 °F /  12.5 °C 30.21in /  1022.9hPa ENE 0.9mph /  1.4km/h 5mph /  8km/h 72.6% 0.00in /  0mm 0 W/m2
22:54 63.2 °F /  17.3 °C 54.4 °F /  12.4 °C 30.21in /  1022.9hPa ENE 1.9mph /  3.1km/h 7mph /  11.3km/h 73% 0.00in /  0mm 0 W/m2
22:59 63.1 °F /  17.3 °C 54.3 °F /  12.4 °C 30.21in /  1022.9hPa NE 0.5mph /  0.8km/h 7mph /  11.3km/h 73% 0.00in /  0mm 0 W/m2
23:04 63 °F /  17.2 °C 54.1 °F /  12.3 °C 30.21in /  1022.9hPa NE 0.7mph /  1.1km/h 5mph /  8km/h 73% 0.00in /  0mm 0 W/m2
23:09 62.9 °F /  17.2 °C 54 °F /  12.2 °C 30.21in /  1022.9hPa NE 0.6mph /  1km/h 4mph /  6.4km/h 73% 0.00in /  0mm 0 W/m2
23:14 62.6 °F /  17 °C 53.8 °F /  12.1 °C 30.21in /  1022.9hPa ENE 0.7mph /  1.1km/h 4mph /  6.4km/h 73% 0.00in /  0mm 0 W/m2
23:19 62.6 °F /  17 °C 53.8 °F /  12.1 °C 30.21in /  1022.9hPa ENE 0.2mph /  0.3km/h 2mph /  3.2km/h 73.1% 0.00in /  0mm 0 W/m2
23:24 62.5 °F /  16.9 °C 54.1 °F /  12.3 °C 30.21in /  1022.9hPa ENE 0.1mph /  0.2km/h 3mph /  4.8km/h 74% 0.00in /  0mm 0 W/m2
23:29 62.4 °F /  16.9 °C 54 °F /  12.2 °C 30.21in /  1022.9hPa ENE 1mph /  1.6km/h 4mph /  6.4km/h 74% 0.00in /  0mm 0 W/m2
23:34 62.4 °F /  16.9 °C 53.6 °F /  12 °C 30.21in /  1022.9hPa ENE 0.7mph /  1.1km/h 5mph /  8km/h 73.1% 0.00in /  0mm 0 W/m2
23:39 62.2 °F /  16.8 °C 53.7 °F /  12.1 °C 30.21in /  1022.9hPa ENE 0.5mph /  0.8km/h 3mph /  4.8km/h 73.8% 0.00in /  0mm 0 W/m2
23:44 62.1 °F /  16.7 °C 53.6 °F /  12 °C 30.21in /  1022.9hPa ENE 1mph /  1.6km/h 5mph /  8km/h 74% 0.00in /  0mm 0 W/m2
23:49 61.8 °F /  16.6 °C 53.3 °F /  11.8 °C 30.21in /  1022.9hPa ENE 0.6mph /  1km/h 5mph /  8km/h 74% 0.00in /  0mm 0 W/m2
23:54 61.6 °F /  16.4 °C 53.2 °F /  11.8 °C 30.21in /  1022.9hPa ENE 0.4mph /  0.6km/h 5mph /  8km/h 74% 0.00in /  0mm 0 W/m2
23:59 61.5 °F /  16.4 °C 53.2 °F /  11.8 °C 30.21in /  1022.9hPa ENE 0.8mph /  1.3km/h 3mph /  4.8km/h 74% 0.00in /  0mm 0 W/m2
Bath Spa Weather
Compliments of Weather Underground - 2 mb